Terminal Aerodrome Forecast
Issued by NWS St Louis, MO

Home | Current Version | Previous Version | Text Only | Print | Product List | Glossary On
Versions: 1 2 3 4 5 6 7 8 9 10 11 12 13 14 15 16 17 18 19 20 21 22 23 24 25 26 27 28 29 30
000
FTUS43 KLSX 200300 AAA
TAFSTL
TAF AMD
KSTL 200323Z 2003/2106 04007KT P6SM OVC200
     FM201000 05013KT P6SM OVC090
     FM201300 06009KT 5SM -RA BR OVC050
     FM201900 05007KT 3SM -DZ BR OVC010
     FM210000 01007KT 5SM BR OVC015
     FM210400 35006KT 6SM BR BKN025=

USA.gov is the U.S. government's official web portal to all federal, state and local government web resources and services.